createdAt,value
2023-05-05T00:02:14.878Z,82.53
2023-05-05T00:04:41.188Z,82.42
2023-05-05T00:07:07.468Z,83.88
2023-05-05T00:09:33.783Z,85.53
2023-05-05T00:12:00.321Z,86.66
2023-05-05T00:14:26.617Z,85.71
2023-05-05T00:16:52.968Z,85.65
2023-05-05T00:19:19.348Z,84.93
2023-05-05T00:21:45.755Z,85.31
2023-05-05T00:24:12.127Z,85.68
2023-05-05T00:26:38.539Z,85.20
2023-05-05T00:29:05.074Z,86.78
2023-05-05T00:31:31.493Z,85.26
2023-05-05T00:33:58.917Z,83.87
2023-05-05T00:36:25.292Z,85.93
2023-05-05T00:38:51.841Z,85.71
2023-05-05T00:41:18.130Z,85.77
2023-05-05T00:43:44.425Z,85.36
2023-05-05T00:46:23.313Z,87.95
2023-05-05T00:48:50.602Z,87.13
2023-05-05T00:51:18.121Z,87.16
2023-05-05T00:53:45.113Z,86.82
2023-05-05T00:56:16.722Z,87.28
2023-05-05T00:58:44.189Z,87.17
2023-05-05T01:01:11.992Z,87.51
2023-05-05T01:03:40.376Z,86.05
2023-05-05T01:06:30.651Z,85.13
2023-05-05T01:09:15.732Z,86.92
2023-05-05T01:11:51.328Z,86.71
2023-05-05T01:14:24.399Z,86.04
2023-05-05T01:16:59.015Z,86.03
2023-05-05T01:19:40.663Z,86.30
2023-05-05T01:22:11.484Z,85.65
2023-05-05T01:24:55.694Z,86.08
2023-05-05T01:27:44.679Z,87.56
2023-05-05T01:30:34.243Z,87.00
2023-05-05T01:33:08.255Z,88.35
2023-05-05T01:35:41.768Z,87.74
2023-05-05T01:38:14.527Z,87.40
2023-05-05T01:40:46.918Z,87.33
2023-05-05T01:43:15.132Z,86.96
2023-05-05T01:45:44.560Z,88.37
2023-05-05T01:48:13.084Z,87.34
2023-05-05T01:50:41.670Z,87.64
2023-05-05T01:53:09.745Z,86.16
2023-05-05T01:55:39.168Z,85.49
2023-05-05T01:58:06.972Z,85.56
2023-05-05T02:00:34.460Z,86.81
2023-05-05T02:03:04.317Z,87.82
2023-05-05T02:05:32.880Z,88.13
2023-05-05T02:08:00.250Z,88.69
2023-05-05T02:10:28.221Z,87.61
2023-05-05T02:12:55.563Z,87.62
2023-05-05T02:15:23.471Z,89.86
2023-05-05T02:17:52.693Z,89.36
2023-05-05T02:20:20.334Z,90.22
2023-05-05T02:22:48.133Z,90.68
2023-05-05T02:25:14.680Z,90.27
2023-05-05T02:27:44.110Z,89.30
2023-05-05T02:30:14.092Z,88.72
2023-05-05T02:32:46.933Z,88.31
2023-05-05T02:35:22.759Z,88.66
2023-05-05T02:38:02.565Z,89.46
2023-05-05T02:40:35.412Z,88.55
2023-05-05T02:43:09.954Z,88.67
2023-05-05T02:45:36.413Z,90.00
2023-05-05T02:48:06.745Z,90.96
2023-05-05T02:50:37.546Z,90.98
2023-05-05T02:53:29.150Z,92.03
2023-05-05T02:56:05.922Z,91.21
2023-05-05T02:58:54.329Z,92.99
2023-05-05T03:01:27.631Z,93.28
2023-05-05T03:04:11.940Z,92.63
2023-05-05T03:06:48.574Z,92.23
2023-05-05T03:10:02.131Z,91.79
2023-05-05T03:12:37.302Z,91.79
2023-05-05T03:15:15.749Z,91.65
2023-05-05T03:17:44.015Z,91.82
2023-05-05T03:20:12.356Z,92.92
2023-05-05T03:22:41.599Z,91.54
2023-05-05T03:25:11.955Z,92.45
2023-05-05T03:27:38.431Z,92.23
2023-05-05T03:30:06.665Z,92.69
2023-05-05T03:32:35.824Z,93.36
2023-05-05T03:35:02.229Z,92.93
2023-05-05T03:37:32.467Z,92.88
2023-05-05T03:39:59.100Z,92.70
2023-05-05T03:42:25.553Z,90.96
2023-05-05T03:44:53.486Z,90.35
2023-05-05T03:47:24.366Z,90.13
2023-05-05T03:49:51.359Z,90.81
2023-05-05T03:52:18.069Z,93.69
2023-05-05T03:54:45.960Z,94.46
2023-05-05T03:57:12.271Z,94.41
2023-05-05T03:59:38.579Z,94.46
2023-05-05T04:02:05.299Z,93.67
2023-05-05T04:04:31.673Z,94.42
2023-05-05T04:06:58.328Z,93.25
2023-05-05T04:09:24.738Z,94.71
2023-05-05T04:11:51.077Z,94.21
2023-05-05T04:14:17.618Z,95.83
2023-05-05T04:16:44.335Z,95.73
2023-05-05T04:19:12.924Z,94.34
2023-05-05T04:21:39.912Z,93.89
2023-05-05T04:24:06.678Z,92.95
2023-05-05T04:26:33.027Z,94.69
2023-05-05T04:28:59.752Z,95.95
2023-05-05T04:31:26.242Z,94.95
2023-05-05T04:33:52.683Z,94.03
2023-05-05T04:36:19.518Z,93.76
2023-05-05T04:38:47.139Z,95.10
2023-05-05T04:41:13.579Z,94.58
2023-05-05T04:43:42.037Z,95.20
2023-05-05T04:46:08.442Z,93.94
2023-05-05T04:48:37.815Z,95.08
2023-05-05T04:51:05.711Z,95.90
2023-05-05T04:53:32.512Z,94.50
2023-05-05T04:56:01.776Z,95.23
2023-05-05T04:58:28.874Z,94.57
2023-05-05T05:00:55.372Z,95.24
2023-05-05T05:03:21.822Z,96.01
2023-05-05T05:05:48.340Z,96.27
2023-05-05T05:08:18.065Z,96.97
2023-05-05T05:10:45.038Z,97.03
2023-05-05T05:13:12.952Z,96.48
2023-05-05T05:15:39.678Z,97.21
2023-05-05T05:18:06.453Z,95.90
2023-05-05T05:20:33.268Z,94.91
2023-05-05T05:23:01.980Z,92.97
2023-05-05T05:25:29.851Z,92.21
2023-05-05T05:28:08.950Z,92.65
2023-05-05T05:30:41.506Z,91.63
2023-05-05T05:33:10.515Z,92.18
2023-05-05T05:35:37.016Z,92.14
2023-05-05T05:38:03.947Z,93.24
2023-05-05T05:40:31.325Z,92.56
2023-05-05T05:42:58.400Z,93.46
2023-05-05T05:45:25.582Z,93.71
2023-05-05T05:47:52.058Z,93.18
2023-05-05T05:50:18.542Z,91.88
2023-05-05T05:52:44.966Z,92.09
2023-05-05T05:55:11.461Z,92.33
2023-05-05T05:57:38.813Z,93.76
2023-05-05T06:00:07.728Z,94.67
2023-05-05T06:02:43.006Z,94.54
2023-05-05T06:05:13.760Z,95.27
2023-05-05T06:07:42.020Z,94.95
2023-05-05T06:10:25.699Z,93.57
2023-05-05T06:12:57.651Z,92.85
2023-05-05T06:15:25.434Z,91.88
2023-05-05T06:17:52.427Z,90.30
2023-05-05T06:20:18.955Z,88.33
2023-05-05T06:22:45.410Z,86.97
2023-05-05T06:25:11.875Z,86.75
2023-05-05T06:27:38.393Z,86.40
2023-05-05T06:30:06.665Z,86.16
2023-05-05T06:32:33.108Z,86.10
2023-05-05T06:34:59.451Z,87.43
2023-05-05T06:37:25.798Z,87.22
2023-05-05T06:39:52.129Z,87.72
2023-05-05T06:42:18.449Z,87.55
2023-05-05T06:44:45.641Z,86.88
2023-05-05T06:47:11.965Z,87.00
2023-05-05T06:49:38.271Z,87.73
2023-05-05T06:52:04.852Z,87.87
2023-05-05T06:54:31.165Z,88.40
2023-05-05T06:56:59.429Z,86.95
2023-05-05T06:59:26.629Z,86.83
2023-05-05T07:01:52.951Z,86.18
2023-05-05T07:04:19.426Z,86.29
2023-05-05T07:06:45.793Z,85.61
2023-05-05T07:09:12.597Z,84.82
2023-05-05T07:11:38.901Z,85.92
2023-05-05T07:14:05.239Z,84.19
2023-05-05T07:16:34.460Z,84.23
2023-05-05T07:19:00.873Z,85.04
2023-05-05T07:21:27.227Z,86.86
2023-05-05T07:23:53.579Z,87.08
2023-05-05T07:26:19.926Z,87.68
2023-05-05T07:28:46.278Z,86.31
2023-05-05T07:31:12.585Z,85.71
2023-05-05T07:33:39.000Z,88.28
2023-05-05T07:36:05.735Z,89.09
2023-05-05T07:38:32.113Z,87.61
2023-05-05T07:40:58.530Z,87.41
2023-05-05T07:43:24.864Z,88.38
2023-05-05T07:45:51.171Z,89.30
2023-05-05T07:48:17.548Z,90.44
2023-05-05T07:50:43.911Z,89.21
2023-05-05T07:53:14.584Z,89.38
2023-05-05T07:55:41.349Z,89.35
2023-05-05T07:58:08.322Z,88.42
2023-05-05T08:00:34.708Z,88.48
2023-05-05T08:03:01.151Z,87.96
2023-05-05T08:05:27.577Z,87.01
2023-05-05T08:07:53.909Z,88.06
2023-05-05T08:10:21.792Z,86.21
2023-05-05T08:12:48.518Z,87.48
2023-05-05T08:15:14.819Z,86.34
2023-05-05T08:17:49.029Z,84.91
2023-05-05T08:20:20.923Z,83.80
2023-05-05T08:22:47.954Z,84.86
2023-05-05T08:25:14.576Z,83.59
2023-05-05T08:27:42.419Z,83.21
2023-05-05T08:30:09.789Z,85.72
2023-05-05T08:32:36.135Z,84.87
2023-05-05T08:35:06.328Z,84.78
2023-05-05T08:37:33.105Z,83.41
2023-05-05T08:39:59.458Z,79.56
2023-05-05T08:42:36.168Z,77.77
2023-05-05T08:45:04.536Z,76.46
2023-05-05T08:47:32.032Z,77.34
2023-05-05T08:49:59.893Z,78.46
2023-05-05T08:52:32.675Z,76.62
2023-05-05T08:55:27.128Z,74.71
2023-05-05T08:57:57.980Z,77.51
2023-05-05T09:00:26.330Z,75.54
2023-05-05T09:02:54.561Z,73.88
2023-05-05T09:05:21.544Z,75.52
2023-05-05T09:07:47.893Z,74.64
2023-05-05T09:10:14.470Z,72.38
2023-05-05T09:12:41.272Z,70.05
2023-05-05T09:15:12.606Z,67.66
2023-05-05T09:17:40.314Z,67.02
2023-05-05T09:20:09.555Z,67.27
2023-05-05T09:22:43.788Z,66.81
2023-05-05T09:25:18.085Z,68.62
2023-05-05T09:27:47.263Z,68.91
2023-05-05T09:30:23.146Z,68.90
2023-05-05T09:32:51.504Z,68.27
2023-05-05T09:35:19.044Z,68.41
2023-05-05T09:37:45.705Z,69.03
2023-05-05T09:40:14.456Z,70.02
2023-05-05T09:42:41.416Z,70.91
2023-05-05T09:45:16.884Z,66.95
2023-05-05T09:47:43.499Z,63.77
2023-05-05T09:50:11.346Z,66.90
2023-05-05T09:52:37.818Z,66.05
2023-05-05T09:55:04.379Z,64.08
2023-05-05T09:57:33.631Z,65.16
2023-05-05T10:00:02.386Z,64.97
2023-05-05T10:02:38.460Z,62.26
2023-05-05T10:05:08.455Z,60.27
2023-05-05T10:07:35.968Z,57.82
2023-05-05T10:10:08.164Z,57.25
2023-05-05T10:12:36.760Z,59.55
2023-05-05T10:15:07.681Z,60.25
2023-05-05T10:17:38.103Z,59.30
2023-05-05T10:20:07.389Z,60.69
2023-05-05T10:22:35.019Z,60.20
2023-05-05T10:25:12.454Z,59.35
2023-05-05T10:27:44.624Z,57.49
2023-05-05T10:30:20.496Z,56.95
2023-05-05T10:32:54.427Z,56.24
2023-05-05T10:35:35.425Z,51.89
2023-05-05T10:38:03.486Z,51.08
2023-05-05T10:40:30.411Z,52.75
2023-05-05T10:42:58.186Z,52.70
2023-05-05T10:45:24.867Z,53.93
2023-05-05T10:47:52.733Z,52.11
2023-05-05T10:50:35.023Z,51.70
2023-05-05T10:53:21.857Z,50.69
2023-05-05T10:56:05.720Z,49.95
2023-05-05T10:58:43.777Z,47.17
2023-05-05T11:01:32.342Z,48.62
2023-05-05T11:04:21.947Z,46.08
2023-05-05T11:07:10.237Z,44.66
2023-05-05T11:09:54.999Z,44.91
2023-05-05T11:12:21.470Z,47.86
2023-05-05T11:14:47.815Z,48.40
2023-05-05T11:17:49.237Z,49.31
2023-05-05T11:20:15.819Z,46.20
2023-05-05T11:23:02.074Z,48.99
2023-05-05T11:25:34.552Z,46.06
2023-05-05T11:28:08.288Z,44.97
2023-05-05T11:30:36.049Z,43.64
2023-05-05T11:33:25.703Z,46.19
2023-05-05T11:35:56.491Z,46.66
2023-05-05T11:38:25.988Z,46.42
2023-05-05T11:41:01.395Z,46.44
2023-05-05T11:43:27.767Z,45.13
2023-05-05T11:46:11.718Z,41.57
2023-05-05T11:48:47.612Z,42.79
2023-05-05T11:51:18.845Z,42.88
2023-05-05T11:53:49.874Z,40.41
2023-05-05T11:56:21.744Z,41.36
2023-05-05T11:58:49.072Z,42.68
2023-05-05T12:01:15.612Z,41.99
2023-05-05T12:03:43.176Z,38.74
2023-05-05T12:06:09.990Z,37.42
2023-05-05T12:08:37.257Z,38.67
2023-05-05T12:11:07.445Z,37.90
2023-05-05T12:13:34.593Z,35.42
2023-05-05T12:16:10.998Z,38.56
2023-05-05T12:18:37.528Z,37.82
2023-05-05T12:21:20.377Z,36.66
2023-05-05T12:23:46.778Z,38.27
2023-05-05T12:26:30.409Z,38.71
2023-05-05T12:28:58.153Z,36.26
2023-05-05T12:31:38.092Z,36.75
2023-05-05T12:34:06.271Z,36.35
2023-05-05T12:36:33.857Z,35.13
2023-05-05T12:39:00.393Z,33.74
2023-05-05T12:41:27.292Z,35.75
2023-05-05T12:43:58.154Z,37.03
2023-05-05T12:46:24.840Z,35.49
2023-05-05T12:49:04.573Z,36.67
2023-05-05T12:51:35.824Z,34.98
2023-05-05T12:54:03.735Z,33.19
2023-05-05T12:56:36.058Z,35.79
2023-05-05T12:59:07.907Z,34.75
2023-05-05T13:01:35.905Z,35.85
2023-05-05T13:04:07.460Z,36.62
2023-05-05T13:06:34.111Z,36.26
2023-05-05T13:09:00.517Z,37.60
2023-05-05T13:11:26.822Z,37.75
2023-05-05T13:13:53.239Z,37.79
2023-05-05T13:16:19.594Z,39.47
2023-05-05T13:18:49.745Z,39.74
2023-05-05T13:21:16.548Z,39.98
2023-05-05T13:23:44.122Z,40.68
2023-05-05T13:26:11.314Z,40.32
2023-05-05T13:28:38.035Z,41.30
2023-05-05T13:31:04.734Z,41.81
2023-05-05T13:33:33.827Z,42.03
2023-05-05T13:36:01.544Z,41.40
2023-05-05T13:38:27.954Z,42.85
2023-05-05T13:40:54.496Z,43.85
2023-05-05T13:43:20.850Z,44.61
2023-05-05T13:45:47.139Z,44.58
2023-05-05T13:48:13.644Z,43.90
2023-05-05T13:50:39.935Z,44.08
2023-05-05T13:53:06.222Z,43.34
2023-05-05T13:55:32.644Z,43.32
2023-05-05T13:57:58.952Z,42.64
2023-05-05T14:00:26.362Z,42.74
2023-05-05T14:02:52.832Z,43.95
2023-05-05T14:05:20.250Z,44.28
2023-05-05T14:07:47.464Z,43.83
2023-05-05T14:10:13.838Z,44.22
2023-05-05T14:12:40.270Z,45.31
2023-05-05T14:15:07.400Z,45.56
2023-05-05T14:17:34.154Z,45.88
2023-05-05T14:20:00.488Z,46.44
2023-05-05T14:22:27.359Z,46.34
2023-05-05T14:24:53.648Z,45.70
2023-05-05T14:27:20.025Z,46.93
2023-05-05T14:29:46.351Z,46.79
2023-05-05T14:32:12.705Z,47.82
2023-05-05T14:34:39.050Z,48.20
2023-05-05T14:37:05.430Z,47.75
2023-05-05T14:39:31.721Z,49.18
2023-05-05T14:41:58.022Z,52.59
2023-05-05T14:44:24.326Z,53.07
2023-05-05T14:46:51.269Z,53.21
2023-05-05T14:49:17.695Z,53.59
2023-05-05T14:51:44.041Z,53.91
2023-05-05T14:54:24.274Z,55.29
2023-05-05T14:56:54.384Z,55.06
2023-05-05T14:59:20.750Z,54.81
2023-05-05T15:01:48.068Z,55.85
2023-05-05T15:04:14.419Z,55.70
2023-05-05T15:06:40.734Z,55.99
2023-05-05T15:09:07.026Z,56.82
2023-05-05T15:11:33.394Z,57.11
2023-05-05T15:14:00.937Z,57.15
2023-05-05T15:16:27.290Z,57.50
2023-05-05T15:18:53.639Z,58.43
2023-05-05T15:21:19.950Z,57.65
2023-05-05T15:23:46.249Z,58.24
2023-05-05T15:26:12.731Z,58.91
2023-05-05T15:28:39.110Z,58.33
2023-05-05T15:31:06.250Z,58.36
2023-05-05T15:33:33.387Z,58.57
2023-05-05T15:36:00.204Z,59.13
2023-05-05T15:38:28.869Z,59.26
2023-05-05T15:40:55.254Z,59.12
2023-05-05T15:43:21.549Z,58.89
2023-05-05T15:45:47.824Z,59.60
2023-05-05T15:48:14.115Z,60.83
2023-05-05T15:50:40.513Z,60.17
2023-05-05T15:53:06.798Z,60.47
2023-05-05T15:55:33.100Z,60.27
2023-05-05T15:57:59.389Z,60.47
2023-05-05T16:00:25.776Z,59.98
2023-05-05T16:02:52.200Z,59.74
2023-05-05T16:05:20.639Z,59.32
2023-05-05T16:07:48.496Z,60.01
2023-05-05T16:10:14.846Z,60.06
2023-05-05T16:12:41.190Z,60.15
2023-05-05T16:15:08.390Z,59.13
2023-05-05T16:17:34.807Z,58.67
2023-05-05T16:20:01.162Z,58.38
2023-05-05T16:22:27.500Z,55.83
2023-05-05T16:24:53.829Z,57.89
2023-05-05T16:27:20.222Z,58.02
2023-05-05T16:29:46.585Z,58.53
2023-05-05T16:32:12.973Z,58.47
2023-05-05T16:34:39.318Z,58.63
2023-05-05T16:37:05.635Z,58.17
2023-05-05T16:39:32.905Z,57.89
2023-05-05T16:41:59.240Z,58.13
2023-05-05T16:44:25.656Z,58.48
2023-05-05T16:46:52.004Z,58.60
2023-05-05T16:49:18.294Z,59.09
2023-05-05T16:51:44.637Z,58.29
2023-05-05T16:54:10.925Z,57.36
2023-05-05T16:56:37.330Z,57.53
2023-05-05T16:59:03.638Z,58.34
2023-05-05T17:01:30.135Z,57.88
2023-05-05T17:04:01.645Z,57.57
2023-05-05T17:06:34.126Z,55.69
2023-05-05T17:09:00.564Z,56.00
2023-05-05T17:11:26.961Z,56.84
2023-05-05T17:13:53.338Z,56.16
2023-05-05T17:16:19.655Z,55.58
2023-05-05T17:18:46.030Z,56.38
2023-05-05T17:21:12.368Z,56.93
2023-05-05T17:23:38.651Z,57.46
2023-05-05T17:26:05.179Z,57.52
2023-05-05T17:28:31.577Z,56.95
2023-05-05T17:30:59.801Z,57.24
2023-05-05T17:33:26.125Z,56.85
2023-05-05T17:35:52.462Z,58.99
2023-05-05T17:38:18.773Z,56.99
2023-05-05T17:40:45.121Z,57.01
2023-05-05T17:43:11.553Z,56.45
2023-05-05T17:45:37.986Z,57.75
2023-05-05T17:48:04.661Z,58.54
2023-05-05T17:50:31.029Z,56.28
2023-05-05T17:52:57.385Z,56.74
2023-05-05T17:55:23.730Z,57.00
2023-05-05T17:57:50.335Z,58.10
2023-05-05T18:00:18.094Z,57.56
2023-05-05T18:02:44.522Z,59.02
2023-05-05T18:05:11.363Z,58.46
2023-05-05T18:07:38.529Z,58.12
2023-05-05T18:10:06.718Z,59.32
2023-05-05T18:12:33.031Z,60.07
2023-05-05T18:14:59.400Z,59.81
2023-05-05T18:17:26.161Z,60.01
2023-05-05T18:19:52.475Z,60.41
2023-05-05T18:22:18.818Z,59.76
2023-05-05T18:24:46.442Z,59.10
2023-05-05T18:27:12.794Z,59.82
2023-05-05T18:29:39.171Z,61.34
2023-05-05T18:32:06.451Z,61.17
2023-05-05T18:34:32.922Z,61.55
2023-05-05T18:37:00.256Z,61.76
2023-05-05T18:39:26.702Z,62.00
2023-05-05T18:41:53.168Z,61.76
2023-05-05T18:44:20.011Z,62.18
2023-05-05T18:46:49.413Z,61.85
2023-05-05T18:49:16.170Z,61.63
2023-05-05T18:51:43.484Z,61.22
2023-05-05T18:54:09.827Z,61.59
2023-05-05T18:56:36.276Z,61.85
2023-05-05T18:59:02.618Z,61.88
2023-05-05T19:01:29.019Z,62.88
2023-05-05T19:03:55.648Z,63.34
2023-05-05T19:06:22.000Z,63.98
2023-05-05T19:08:48.359Z,64.33
2023-05-05T19:11:14.978Z,64.26
2023-05-05T19:13:41.997Z,65.18
2023-05-05T19:16:08.434Z,65.09
2023-05-05T19:18:34.858Z,65.70
2023-05-05T19:21:01.615Z,65.49
2023-05-05T19:23:28.047Z,66.22
2023-05-05T19:25:54.435Z,67.48
2023-05-05T19:28:21.289Z,67.98
2023-05-05T19:30:48.541Z,68.15
2023-05-05T19:33:15.711Z,68.69
2023-05-05T19:35:42.218Z,68.15
2023-05-05T19:38:10.154Z,68.54
2023-05-05T19:40:40.163Z,69.40
2023-05-05T19:43:07.272Z,69.59
2023-05-05T19:45:33.910Z,68.63
2023-05-05T19:48:03.177Z,69.83
2023-05-05T19:50:30.526Z,69.97
2023-05-05T19:52:57.597Z,70.45
2023-05-05T19:55:24.330Z,70.30
2023-05-05T19:57:50.702Z,69.93
2023-05-05T20:00:17.344Z,70.20
2023-05-05T20:02:45.134Z,70.84
2023-05-05T20:05:13.883Z,70.33
2023-05-05T20:07:41.614Z,70.97
2023-05-05T20:10:09.470Z,70.59
2023-05-05T20:12:36.296Z,71.37
2023-05-05T20:15:03.047Z,71.49
2023-05-05T20:17:29.436Z,72.30
2023-05-05T20:19:57.451Z,72.95
2023-05-05T20:22:26.268Z,72.76
2023-05-05T20:24:53.260Z,73.43
2023-05-05T20:27:20.763Z,73.67
2023-05-05T20:29:47.256Z,74.27
2023-05-05T20:32:13.652Z,74.31
2023-05-05T20:34:39.976Z,74.22
2023-05-05T20:37:06.423Z,75.08
2023-05-05T20:39:32.808Z,74.97
2023-05-05T20:41:59.188Z,74.70
2023-05-05T20:44:25.486Z,74.21
2023-05-05T20:46:51.872Z,73.80
2023-05-05T20:49:18.260Z,73.92
2023-05-05T20:51:44.604Z,74.58
2023-05-05T20:54:10.944Z,74.11
2023-05-05T20:56:37.264Z,73.98
2023-05-05T20:59:04.468Z,75.11
2023-05-05T21:01:30.961Z,75.50
2023-05-05T21:03:57.378Z,75.51
2023-05-05T21:06:24.209Z,75.47
2023-05-05T21:08:50.548Z,76.59
2023-05-05T21:11:16.916Z,79.14
2023-05-05T21:13:43.236Z,78.88
2023-05-05T21:16:09.877Z,79.15
2023-05-05T21:18:36.441Z,79.88
2023-05-05T21:21:02.729Z,80.68
2023-05-05T21:23:30.357Z,81.98
2023-05-05T21:25:56.679Z,82.16
2023-05-05T21:28:22.995Z,82.09
2023-05-05T21:31:10.266Z,81.08
2023-05-05T21:33:37.528Z,81.46
2023-05-05T21:36:04.495Z,81.92
2023-05-05T21:38:30.886Z,82.23
2023-05-05T21:40:58.106Z,83.23
2023-05-05T21:43:30.685Z,82.94
2023-05-05T21:46:04.843Z,83.71
2023-05-05T21:48:31.415Z,82.30
2023-05-05T21:50:58.042Z,83.00
2023-05-05T21:53:24.615Z,83.45
2023-05-05T21:55:51.417Z,83.58
2023-05-05T21:58:17.757Z,82.70
2023-05-05T22:00:44.853Z,82.40
2023-05-05T22:03:11.325Z,82.43
2023-05-05T22:05:38.164Z,82.74
2023-05-05T22:08:04.606Z,83.79
2023-05-05T22:10:31.081Z,83.57
2023-05-05T22:12:58.140Z,83.84
2023-05-05T22:15:27.700Z,84.40
2023-05-05T22:17:56.536Z,84.08
2023-05-05T22:20:22.993Z,84.37
2023-05-05T22:22:49.435Z,83.72
2023-05-05T22:25:16.122Z,83.89
2023-05-05T22:27:42.794Z,84.20
2023-05-05T22:30:09.624Z,84.77
2023-05-05T22:32:35.964Z,83.71
2023-05-05T22:35:02.342Z,82.31
2023-05-05T22:37:28.752Z,82.68
2023-05-05T22:39:55.029Z,82.67
2023-05-05T22:42:21.532Z,83.55
2023-05-05T22:44:47.884Z,82.63
2023-05-05T22:47:14.297Z,81.97
2023-05-05T22:49:40.701Z,81.04
2023-05-05T22:52:07.291Z,81.32
2023-05-05T22:54:33.671Z,81.43
2023-05-05T22:57:00.047Z,81.71
2023-05-05T22:59:26.395Z,81.91
2023-05-05T23:01:52.711Z,82.26
2023-05-05T23:04:19.193Z,83.69
2023-05-05T23:06:46.127Z,83.82
2023-05-05T23:09:12.840Z,84.19
2023-05-05T23:11:39.328Z,84.45
2023-05-05T23:14:05.709Z,84.39
2023-05-05T23:16:32.131Z,84.95
2023-05-05T23:18:58.494Z,85.06
2023-05-05T23:21:24.822Z,85.93
2023-05-05T23:23:51.228Z,86.00
2023-05-05T23:26:17.599Z,86.38
2023-05-05T23:28:43.958Z,86.26
2023-05-05T23:31:10.377Z,86.93
2023-05-05T23:33:36.866Z,86.42
2023-05-05T23:36:03.804Z,87.01
2023-05-05T23:38:30.282Z,88.42
2023-05-05T23:40:56.605Z,87.55
2023-05-05T23:43:22.940Z,88.17
2023-05-05T23:45:49.327Z,87.95
2023-05-05T23:48:15.692Z,89.31
2023-05-05T23:50:42.326Z,89.29
2023-05-05T23:53:09.553Z,87.41
2023-05-05T23:55:35.916Z,88.33
2023-05-05T23:58:02.312Z,89.34
